KBPI/BPI METAR and TAF weather

Enter ICAO airport designator
Station Type Date Time Source
KBPI METAR 2018/07/21 21:53 UTC NOAA

KBPI 212153Z AUTO 03011G15KT 10SM CLR 31/06 A3025 RMK AO2 SLP134 T03060061


Station Type Date Time Source
KBPI Decoded METAR 2018/07/21 21:53 UTC NOAA

BIG PINEY-MARBLETON AIRPORT, WY, United States (KBPI) 42-35N 110-06W 2117M
Jul 21, 2018 - 05:53 PM EDT / 2018.07.21 2153 UTC
Wind: from the NNE (030 degrees) at 13 MPH (11 KT) gusting to 17 MPH (15 KT):0
Visibility: 10 mile(s):0
Sky conditions: clear
Temperature: 87.1 F (30.6 C)
Dew Point: 43.0 F (6.1 C)
Relative Humidity: 21%
Pressure (altimeter): 30.25 in. Hg (1024 hPa)
ob: KBPI 212153Z AUTO 03011G15KT 10SM CLR 31/06 A3025 RMK AO2 SLP134 T03060061
cycle: 22

Station Type Date Time Source
KBPI TAF 2018/07/21 18:30 UTC NOAA

TAF KBPI 211729Z 2118/2218 VRB06KT P6SM BKN100
FM211900 26012G18KT P6SM VCSH BKN090
FM220100 35009KT P6SM SCT100


Example: see airport list